sensor_id;sensor_type;location;lat;lon;timestamp;P1;durP1;ratioP1;P2;durP2;ratioP2
52786;SDS011;38661;53.152;5.846;2023-06-05T00:02:21;4.70;;;4.20;;
52786;SDS011;38661;53.152;5.846;2023-06-05T00:04:47;5.45;;;4.15;;
52786;SDS011;38661;53.152;5.846;2023-06-05T00:07:13;4.55;;;4.07;;
52786;SDS011;38661;53.152;5.846;2023-06-05T00:09:39;6.55;;;4.80;;
52786;SDS011;38661;53.152;5.846;2023-06-05T00:12:06;6.13;;;4.72;;
52786;SDS011;38661;53.152;5.846;2023-06-05T00:14:32;8.63;;;4.85;;
52786;SDS011;38661;53.152;5.846;2023-06-05T00:16:57;4.90;;;4.28;;
52786;SDS011;38661;53.152;5.846;2023-06-05T00:19:23;5.95;;;4.90;;
52786;SDS011;38661;53.152;5.846;2023-06-05T00:21:49;7.93;;;4.75;;
52786;SDS011;38661;53.152;5.846;2023-06-05T00:24:16;6.60;;;4.70;;
52786;SDS011;38661;53.152;5.846;2023-06-05T00:26:42;7.57;;;4.45;;
52786;SDS011;38661;53.152;5.846;2023-06-05T00:29:08;5.63;;;4.10;;
52786;SDS011;38661;53.152;5.846;2023-06-05T00:31:33;5.90;;;3.83;;
52786;SDS011;38661;53.152;5.846;2023-06-05T00:33:59;5.90;;;4.43;;
52786;SDS011;38661;53.152;5.846;2023-06-05T00:36:25;5.13;;;4.20;;
52786;SDS011;38661;53.152;5.846;2023-06-05T00:38:50;5.43;;;3.88;;
52786;SDS011;38661;53.152;5.846;2023-06-05T00:41:16;5.32;;;4.22;;
52786;SDS011;38661;53.152;5.846;2023-06-05T00:43:42;4.32;;;3.35;;
52786;SDS011;38661;53.152;5.846;2023-06-05T00:46:08;5.80;;;3.90;;
52786;SDS011;38661;53.152;5.846;2023-06-05T00:48:36;6.57;;;4.50;;
52786;SDS011;38661;53.152;5.846;2023-06-05T00:51:03;4.45;;;3.33;;
52786;SDS011;38661;53.152;5.846;2023-06-05T00:53:30;3.85;;;3.15;;
52786;SDS011;38661;53.152;5.846;2023-06-05T00:55:59;6.43;;;4.30;;
52786;SDS011;38661;53.152;5.846;2023-06-05T00:58:27;5.57;;;4.72;;
52786;SDS011;38661;53.152;5.846;2023-06-05T01:00:54;5.93;;;4.65;;
52786;SDS011;38661;53.152;5.846;2023-06-05T01:03:21;7.63;;;4.80;;
52786;SDS011;38661;53.152;5.846;2023-06-05T01:05:48;10.15;;;4.88;;
52786;SDS011;38661;53.152;5.846;2023-06-05T01:08:14;5.13;;;4.40;;
52786;SDS011;38661;53.152;5.846;2023-06-05T01:10:42;5.35;;;4.15;;
52786;SDS011;38661;53.152;5.846;2023-06-05T01:13:17;4.85;;;4.32;;
52786;SDS011;38661;53.152;5.846;2023-06-05T01:15:50;5.38;;;4.18;;
52786;SDS011;38661;53.152;5.846;2023-06-05T01:18:17;6.65;;;3.97;;
52786;SDS011;38661;53.152;5.846;2023-06-05T01:20:43;5.28;;;3.95;;
52786;SDS011;38661;53.152;5.846;2023-06-05T01:23:09;6.75;;;3.75;;
52786;SDS011;38661;53.152;5.846;2023-06-05T01:25:35;5.57;;;4.25;;
52786;SDS011;38661;53.152;5.846;2023-06-05T01:28:17;5.35;;;4.15;;
52786;SDS011;38661;53.152;5.846;2023-06-05T01:31:03;4.80;;;3.60;;
52786;SDS011;38661;53.152;5.846;2023-06-05T01:34:01;5.80;;;3.85;;
52786;SDS011;38661;53.152;5.846;2023-06-05T01:36:30;6.07;;;3.85;;
52786;SDS011;38661;53.152;5.846;2023-06-05T01:38:57;5.47;;;3.75;;
52786;SDS011;38661;53.152;5.846;2023-06-05T01:41:25;7.07;;;3.35;;
52786;SDS011;38661;53.152;5.846;2023-06-05T01:43:52;3.47;;;3.00;;
52786;SDS011;38661;53.152;5.846;2023-06-05T01:46:19;3.38;;;2.80;;
52786;SDS011;38661;53.152;5.846;2023-06-05T01:48:46;3.67;;;2.55;;
52786;SDS011;38661;53.152;5.846;2023-06-05T01:51:12;2.78;;;2.00;;
52786;SDS011;38661;53.152;5.846;2023-06-05T01:53:38;7.07;;;2.65;;
52786;SDS011;38661;53.152;5.846;2023-06-05T01:56:04;3.42;;;2.47;;
52786;SDS011;38661;53.152;5.846;2023-06-05T01:58:32;3.58;;;2.33;;
52786;SDS011;38661;53.152;5.846;2023-06-05T02:00:57;2.88;;;2.22;;
52786;SDS011;38661;53.152;5.846;2023-06-05T02:03:23;4.85;;;2.33;;
52786;SDS011;38661;53.152;5.846;2023-06-05T02:05:49;2.63;;;2.10;;
52786;SDS011;38661;53.152;5.846;2023-06-05T02:08:18;3.85;;;2.60;;
52786;SDS011;38661;53.152;5.846;2023-06-05T02:10:48;3.42;;;2.88;;
52786;SDS011;38661;53.152;5.846;2023-06-05T02:13:14;3.97;;;2.60;;
52786;SDS011;38661;53.152;5.846;2023-06-05T02:15:40;4.90;;;2.85;;
52786;SDS011;38661;53.152;5.846;2023-06-05T02:18:07;3.72;;;2.60;;
52786;SDS011;38661;53.152;5.846;2023-06-05T02:20:33;3.72;;;2.90;;
52786;SDS011;38661;53.152;5.846;2023-06-05T02:22:59;3.40;;;2.65;;
52786;SDS011;38661;53.152;5.846;2023-06-05T02:25:25;3.17;;;2.63;;
52786;SDS011;38661;53.152;5.846;2023-06-05T02:27:52;3.47;;;2.35;;
52786;SDS011;38661;53.152;5.846;2023-06-05T02:30:18;4.22;;;2.65;;
52786;SDS011;38661;53.152;5.846;2023-06-05T02:32:45;4.10;;;2.80;;
52786;SDS011;38661;53.152;5.846;2023-06-05T02:35:11;6.53;;;2.92;;
52786;SDS011;38661;53.152;5.846;2023-06-05T02:37:38;5.65;;;2.67;;
52786;SDS011;38661;53.152;5.846;2023-06-05T02:40:12;4.40;;;3.28;;
52786;SDS011;38661;53.152;5.846;2023-06-05T02:42:38;4.25;;;3.15;;
52786;SDS011;38661;53.152;5.846;2023-06-05T02:45:05;3.85;;;2.88;;
52786;SDS011;38661;53.152;5.846;2023-06-05T02:47:32;4.65;;;3.15;;
52786;SDS011;38661;53.152;5.846;2023-06-05T02:49:58;4.93;;;4.05;;
52786;SDS011;38661;53.152;5.846;2023-06-05T02:52:24;4.75;;;4.20;;
52786;SDS011;38661;53.152;5.846;2023-06-05T02:54:51;5.85;;;4.82;;
52786;SDS011;38661;53.152;5.846;2023-06-05T02:57:16;4.80;;;4.30;;
52786;SDS011;38661;53.152;5.846;2023-06-05T02:59:43;5.32;;;4.82;;
52786;SDS011;38661;53.152;5.846;2023-06-05T03:02:09;5.70;;;4.80;;
52786;SDS011;38661;53.152;5.846;2023-06-05T03:04:36;5.38;;;4.38;;
52786;SDS011;38661;53.152;5.846;2023-06-05T03:07:07;5.15;;;4.20;;
52786;SDS011;38661;53.152;5.846;2023-06-05T03:09:34;6.07;;;4.72;;
52786;SDS011;38661;53.152;5.846;2023-06-05T03:12:01;6.22;;;5.00;;
52786;SDS011;38661;53.152;5.846;2023-06-05T03:14:27;7.38;;;4.97;;
52786;SDS011;38661;53.152;5.846;2023-06-05T03:16:52;8.23;;;6.45;;
52786;SDS011;38661;53.152;5.846;2023-06-05T03:19:19;7.72;;;6.28;;
52786;SDS011;38661;53.152;5.846;2023-06-05T03:21:45;7.32;;;5.03;;
52786;SDS011;38661;53.152;5.846;2023-06-05T03:24:12;8.20;;;5.55;;
52786;SDS011;38661;53.152;5.846;2023-06-05T03:26:42;11.65;;;6.70;;
52786;SDS011;38661;53.152;5.846;2023-06-05T03:29:12;6.95;;;5.65;;
52786;SDS011;38661;53.152;5.846;2023-06-05T03:31:38;8.70;;;7.00;;
52786;SDS011;38661;53.152;5.846;2023-06-05T03:34:03;6.47;;;5.32;;
52786;SDS011;38661;53.152;5.846;2023-06-05T03:36:31;8.45;;;5.82;;
52786;SDS011;38661;53.152;5.846;2023-06-05T03:38:58;9.35;;;6.35;;
52786;SDS011;38661;53.152;5.846;2023-06-05T03:41:24;7.25;;;5.85;;
52786;SDS011;38661;53.152;5.846;2023-06-05T03:43:51;6.75;;;5.28;;
52786;SDS011;38661;53.152;5.846;2023-06-05T03:46:17;7.68;;;5.65;;
52786;SDS011;38661;53.152;5.846;2023-06-05T03:48:47;7.68;;;5.90;;
52786;SDS011;38661;53.152;5.846;2023-06-05T03:51:23;5.85;;;4.82;;
52786;SDS011;38661;53.152;5.846;2023-06-05T03:53:55;6.53;;;5.40;;
52786;SDS011;38661;53.152;5.846;2023-06-05T03:56:23;7.03;;;4.97;;
52786;SDS011;38661;53.152;5.846;2023-06-05T03:58:53;6.85;;;5.35;;
52786;SDS011;38661;53.152;5.846;2023-06-05T04:01:19;5.55;;;4.90;;
52786;SDS011;38661;53.152;5.846;2023-06-05T04:03:45;6.45;;;5.05;;
52786;SDS011;38661;53.152;5.846;2023-06-05T04:06:11;6.28;;;4.68;;
52786;SDS011;38661;53.152;5.846;2023-06-05T04:08:37;5.85;;;5.25;;
52786;SDS011;38661;53.152;5.846;2023-06-05T04:11:03;6.35;;;5.55;;
52786;SDS011;38661;53.152;5.846;2023-06-05T04:13:30;6.45;;;5.75;;
52786;SDS011;38661;53.152;5.846;2023-06-05T04:15:55;7.13;;;5.47;;
52786;SDS011;38661;53.152;5.846;2023-06-05T04:18:22;6.28;;;5.25;;
52786;SDS011;38661;53.152;5.846;2023-06-05T04:20:48;6.22;;;4.90;;
52786;SDS011;38661;53.152;5.846;2023-06-05T04:23:14;6.43;;;5.30;;
52786;SDS011;38661;53.152;5.846;2023-06-05T04:25:40;8.27;;;4.60;;
52786;SDS011;38661;53.152;5.846;2023-06-05T04:28:11;5.65;;;3.55;;
52786;SDS011;38661;53.152;5.846;2023-06-05T04:30:36;4.07;;;3.22;;
52786;SDS011;38661;53.152;5.846;2023-06-05T04:33:03;4.82;;;3.60;;
52786;SDS011;38661;53.152;5.846;2023-06-05T04:35:31;5.05;;;3.65;;
52786;SDS011;38661;53.152;5.846;2023-06-05T04:37:58;4.13;;;3.08;;
52786;SDS011;38661;53.152;5.846;2023-06-05T04:40:25;3.63;;;2.72;;
52786;SDS011;38661;53.152;5.846;2023-06-05T04:42:51;3.47;;;2.83;;
52786;SDS011;38661;53.152;5.846;2023-06-05T04:45:19;4.97;;;2.70;;
52786;SDS011;38661;53.152;5.846;2023-06-05T04:47:46;4.03;;;2.90;;
52786;SDS011;38661;53.152;5.846;2023-06-05T04:50:21;4.75;;;2.65;;
52786;SDS011;38661;53.152;5.846;2023-06-05T04:52:50;3.90;;;2.88;;
52786;SDS011;38661;53.152;5.846;2023-06-05T04:55:17;5.65;;;3.00;;
52786;SDS011;38661;53.152;5.846;2023-06-05T04:57:43;4.30;;;2.63;;
52786;SDS011;38661;53.152;5.846;2023-06-05T05:00:09;2.58;;;2.20;;
52786;SDS011;38661;53.152;5.846;2023-06-05T05:02:36;4.03;;;2.67;;
52786;SDS011;38661;53.152;5.846;2023-06-05T05:05:02;4.15;;;2.72;;
52786;SDS011;38661;53.152;5.846;2023-06-05T05:07:27;3.85;;;2.88;;
52786;SDS011;38661;53.152;5.846;2023-06-05T05:09:53;3.63;;;2.88;;
52786;SDS011;38661;53.152;5.846;2023-06-05T05:12:19;3.40;;;2.70;;
52786;SDS011;38661;53.152;5.846;2023-06-05T05:14:45;3.85;;;2.75;;
52786;SDS011;38661;53.152;5.846;2023-06-05T05:17:11;4.13;;;3.20;;
52786;SDS011;38661;53.152;5.846;2023-06-05T05:19:39;5.82;;;3.08;;
52786;SDS011;38661;53.152;5.846;2023-06-05T05:22:06;4.40;;;2.55;;
52786;SDS011;38661;53.152;5.846;2023-06-05T05:24:32;2.85;;;2.22;;
52786;SDS011;38661;53.152;5.846;2023-06-05T05:26:57;2.92;;;2.50;;
52786;SDS011;38661;53.152;5.846;2023-06-05T05:29:25;4.10;;;2.20;;
52786;SDS011;38661;53.152;5.846;2023-06-05T05:31:51;2.20;;;1.85;;
52786;SDS011;38661;53.152;5.846;2023-06-05T05:34:18;6.13;;;2.58;;
52786;SDS011;38661;53.152;5.846;2023-06-05T05:36:49;3.10;;;2.22;;
52786;SDS011;38661;53.152;5.846;2023-06-05T05:39:15;3.58;;;1.90;;
52786;SDS011;38661;53.152;5.846;2023-06-05T05:41:41;2.92;;;2.00;;
52786;SDS011;38661;53.152;5.846;2023-06-05T05:44:07;2.35;;;2.00;;
52786;SDS011;38661;53.152;5.846;2023-06-05T05:46:32;3.95;;;2.10;;
52786;SDS011;38661;53.152;5.846;2023-06-05T05:48:58;2.53;;;2.10;;
52786;SDS011;38661;53.152;5.846;2023-06-05T05:51:24;4.43;;;2.20;;
52786;SDS011;38661;53.152;5.846;2023-06-05T05:53:49;4.10;;;3.20;;
52786;SDS011;38661;53.152;5.846;2023-06-05T05:56:16;3.35;;;2.53;;
52786;SDS011;38661;53.152;5.846;2023-06-05T05:58:41;4.78;;;2.88;;
52786;SDS011;38661;53.152;5.846;2023-06-05T06:01:08;3.72;;;2.70;;
52786;SDS011;38661;53.152;5.846;2023-06-05T06:03:34;3.78;;;3.38;;
52786;SDS011;38661;53.152;5.846;2023-06-05T06:06:02;3.58;;;2.80;;
52786;SDS011;38661;53.152;5.846;2023-06-05T06:08:32;4.03;;;3.20;;
52786;SDS011;38661;53.152;5.846;2023-06-05T06:10:58;5.28;;;3.00;;
52786;SDS011;38661;53.152;5.846;2023-06-05T06:13:24;3.75;;;2.90;;
52786;SDS011;38661;53.152;5.846;2023-06-05T06:15:50;6.72;;;3.35;;
52786;SDS011;38661;53.152;5.846;2023-06-05T06:18:15;7.57;;;3.50;;
52786;SDS011;38661;53.152;5.846;2023-06-05T06:20:41;6.07;;;3.28;;
52786;SDS011;38661;53.152;5.846;2023-06-05T06:23:07;4.35;;;3.40;;
52786;SDS011;38661;53.152;5.846;2023-06-05T06:25:33;3.92;;;3.10;;
52786;SDS011;38661;53.152;5.846;2023-06-05T06:27:59;10.07;;;3.75;;
52786;SDS011;38661;53.152;5.846;2023-06-05T06:30:26;5.93;;;3.08;;
52786;SDS011;38661;53.152;5.846;2023-06-05T06:32:56;5.18;;;3.00;;
52786;SDS011;38661;53.152;5.846;2023-06-05T06:35:26;5.65;;;3.90;;
52786;SDS011;38661;53.152;5.846;2023-06-05T06:37:55;5.53;;;3.60;;
52786;SDS011;38661;53.152;5.846;2023-06-05T06:40:21;5.28;;;3.47;;
52786;SDS011;38661;53.152;5.846;2023-06-05T06:42:48;4.60;;;3.70;;
52786;SDS011;38661;53.152;5.846;2023-06-05T06:45:14;5.60;;;3.45;;
52786;SDS011;38661;53.152;5.846;2023-06-05T06:47:40;4.82;;;3.20;;
52786;SDS011;38661;53.152;5.846;2023-06-05T06:50:07;6.45;;;3.42;;
52786;SDS011;38661;53.152;5.846;2023-06-05T06:52:34;6.53;;;3.85;;
52786;SDS011;38661;53.152;5.846;2023-06-05T06:54:59;6.30;;;3.70;;
52786;SDS011;38661;53.152;5.846;2023-06-05T06:57:25;4.97;;;3.72;;
52786;SDS011;38661;53.152;5.846;2023-06-05T06:59:51;4.25;;;3.15;;
52786;SDS011;38661;53.152;5.846;2023-06-05T07:02:20;4.93;;;4.20;;
52786;SDS011;38661;53.152;5.846;2023-06-05T07:04:47;8.52;;;3.83;;
52786;SDS011;38661;53.152;5.846;2023-06-05T07:07:15;6.20;;;4.35;;
52786;SDS011;38661;53.152;5.846;2023-06-05T07:09:42;5.13;;;4.20;;
52786;SDS011;38661;53.152;5.846;2023-06-05T07:12:10;10.50;;;4.38;;
52786;SDS011;38661;53.152;5.846;2023-06-05T07:14:37;7.93;;;4.10;;
52786;SDS011;38661;53.152;5.846;2023-06-05T07:17:04;24.45;;;6.20;;
52786;SDS011;38661;53.152;5.846;2023-06-05T07:19:30;6.13;;;4.32;;
52786;SDS011;38661;53.152;5.846;2023-06-05T07:21:56;5.97;;;4.63;;
52786;SDS011;38661;53.152;5.846;2023-06-05T07:24:27;5.18;;;4.07;;
52786;SDS011;38661;53.152;5.846;2023-06-05T07:26:54;7.30;;;4.05;;
52786;SDS011;38661;53.152;5.846;2023-06-05T07:29:21;6.97;;;4.15;;
52786;SDS011;38661;53.152;5.846;2023-06-05T07:31:49;6.72;;;4.35;;
52786;SDS011;38661;53.152;5.846;2023-06-05T07:34:21;4.22;;;3.83;;
52786;SDS011;38661;53.152;5.846;2023-06-05T07:36:49;5.10;;;3.80;;
52786;SDS011;38661;53.152;5.846;2023-06-05T07:39:16;5.13;;;4.18;;
52786;SDS011;38661;53.152;5.846;2023-06-05T07:41:44;6.57;;;3.83;;
52786;SDS011;38661;53.152;5.846;2023-06-05T07:44:10;4.95;;;4.03;;
52786;SDS011;38661;53.152;5.846;2023-06-05T07:46:47;6.28;;;4.53;;
52786;SDS011;38661;53.152;5.846;2023-06-05T07:49:14;5.13;;;4.30;;
52786;SDS011;38661;53.152;5.846;2023-06-05T07:51:43;5.65;;;4.30;;
52786;SDS011;38661;53.152;5.846;2023-06-05T07:54:12;5.00;;;3.83;;
52786;SDS011;38661;53.152;5.846;2023-06-05T07:56:40;7.65;;;4.07;;
52786;SDS011;38661;53.152;5.846;2023-06-05T07:59:06;4.95;;;3.63;;
52786;SDS011;38661;53.152;5.846;2023-06-05T08:01:33;6.93;;;4.03;;
52786;SDS011;38661;53.152;5.846;2023-06-05T08:04:14;6.35;;;3.28;;
52786;SDS011;38661;53.152;5.846;2023-06-05T08:06:41;5.60;;;3.35;;
52786;SDS011;38661;53.152;5.846;2023-06-05T08:09:07;4.97;;;3.65;;
52786;SDS011;38661;53.152;5.846;2023-06-05T08:11:37;4.88;;;3.42;;
52786;SDS011;38661;53.152;5.846;2023-06-05T08:14:07;5.88;;;3.55;;
52786;SDS011;38661;53.152;5.846;2023-06-05T08:16:34;4.88;;;3.92;;
52786;SDS011;38661;53.152;5.846;2023-06-05T08:19:00;5.40;;;3.55;;
52786;SDS011;38661;53.152;5.846;2023-06-05T08:21:26;6.18;;;4.40;;
52786;SDS011;38661;53.152;5.846;2023-06-05T08:23:52;6.97;;;3.67;;
52786;SDS011;38661;53.152;5.846;2023-06-05T08:26:18;7.93;;;3.45;;
52786;SDS011;38661;53.152;5.846;2023-06-05T08:28:45;5.25;;;3.58;;
52786;SDS011;38661;53.152;5.846;2023-06-05T08:31:11;5.22;;;3.97;;
52786;SDS011;38661;53.152;5.846;2023-06-05T08:33:37;4.50;;;3.30;;
52786;SDS011;38661;53.152;5.846;2023-06-05T08:36:04;6.75;;;4.65;;
52786;SDS011;38661;53.152;5.846;2023-06-05T08:38:31;5.40;;;3.60;;
52786;SDS011;38661;53.152;5.846;2023-06-05T08:41:01;4.93;;;3.58;;
52786;SDS011;38661;53.152;5.846;2023-06-05T08:43:35;5.22;;;4.20;;
52786;SDS011;38661;53.152;5.846;2023-06-05T08:46:05;4.63;;;3.80;;
52786;SDS011;38661;53.152;5.846;2023-06-05T08:48:33;5.50;;;4.10;;
52786;SDS011;38661;53.152;5.846;2023-06-05T08:51:06;4.93;;;4.00;;
52786;SDS011;38661;53.152;5.846;2023-06-05T08:53:34;5.30;;;4.65;;
52786;SDS011;38661;53.152;5.846;2023-06-05T08:56:01;5.55;;;4.60;;
52786;SDS011;38661;53.152;5.846;2023-06-05T08:58:27;5.10;;;4.13;;
52786;SDS011;38661;53.152;5.846;2023-06-05T09:00:53;5.93;;;4.55;;
52786;SDS011;38661;53.152;5.846;2023-06-05T09:03:19;7.15;;;5.03;;
52786;SDS011;38661;53.152;5.846;2023-06-05T09:05:48;6.25;;;4.82;;
52786;SDS011;38661;53.152;5.846;2023-06-05T09:08:14;5.75;;;4.60;;
52786;SDS011;38661;53.152;5.846;2023-06-05T09:10:42;5.10;;;4.43;;
52786;SDS011;38661;53.152;5.846;2023-06-05T09:13:07;6.55;;;4.90;;
52786;SDS011;38661;53.152;5.846;2023-06-05T09:15:34;6.22;;;4.93;;
52786;SDS011;38661;53.152;5.846;2023-06-05T09:18:10;7.47;;;4.93;;
52786;SDS011;38661;53.152;5.846;2023-06-05T09:20:38;6.28;;;4.35;;
52786;SDS011;38661;53.152;5.846;2023-06-05T09:25:57;6.72;;;5.05;;
52786;SDS011;38661;53.152;5.846;2023-06-05T09:28:24;9.80;;;5.65;;
52786;SDS011;38661;53.152;5.846;2023-06-05T09:30:53;7.97;;;5.70;;
52786;SDS011;38661;53.152;5.846;2023-06-05T09:33:21;5.45;;;4.50;;
52786;SDS011;38661;53.152;5.846;2023-06-05T09:36:00;7.40;;;4.78;;
52786;SDS011;38661;53.152;5.846;2023-06-05T09:38:33;6.03;;;4.40;;
52786;SDS011;38661;53.152;5.846;2023-06-05T09:41:03;5.95;;;5.20;;
52786;SDS011;38661;53.152;5.846;2023-06-05T09:43:29;7.60;;;4.93;;
52786;SDS011;38661;53.152;5.846;2023-06-05T09:45:55;5.85;;;5.15;;
52786;SDS011;38661;53.152;5.846;2023-06-05T09:48:21;5.22;;;4.70;;
52786;SDS011;38661;53.152;5.846;2023-06-05T09:50:47;7.28;;;4.43;;
52786;SDS011;38661;53.152;5.846;2023-06-05T09:53:14;5.70;;;4.47;;
52786;SDS011;38661;53.152;5.846;2023-06-05T09:55:43;7.57;;;4.88;;
52786;SDS011;38661;53.152;5.846;2023-06-05T09:58:11;6.53;;;4.60;;
52786;SDS011;38661;53.152;5.846;2023-06-05T10:00:41;5.80;;;4.78;;
52786;SDS011;38661;53.152;5.846;2023-06-05T10:03:13;7.35;;;5.05;;
52786;SDS011;38661;53.152;5.846;2023-06-05T10:05:42;6.90;;;4.72;;
52786;SDS011;38661;53.152;5.846;2023-06-05T10:08:10;5.70;;;4.70;;
52786;SDS011;38661;53.152;5.846;2023-06-05T10:10:38;6.00;;;4.70;;
52786;SDS011;38661;53.152;5.846;2023-06-05T10:13:04;8.65;;;4.88;;
52786;SDS011;38661;53.152;5.846;2023-06-05T10:15:31;6.15;;;4.63;;
52786;SDS011;38661;53.152;5.846;2023-06-05T10:17:57;5.50;;;4.70;;
52786;SDS011;38661;53.152;5.846;2023-06-05T10:20:23;5.55;;;4.13;;
52786;SDS011;38661;53.152;5.846;2023-06-05T10:22:49;5.43;;;4.65;;
52786;SDS011;38661;53.152;5.846;2023-06-05T10:25:16;5.85;;;4.43;;
52786;SDS011;38661;53.152;5.846;2023-06-05T10:33:21;5.38;;;4.45;;
52786;SDS011;38661;53.152;5.846;2023-06-05T10:39:09;5.68;;;4.05;;
52786;SDS011;38661;53.152;5.846;2023-06-05T10:41:36;5.72;;;5.10;;
52786;SDS011;38661;53.152;5.846;2023-06-05T10:44:02;5.38;;;4.88;;
52786;SDS011;38661;53.152;5.846;2023-06-05T10:46:36;4.88;;;4.30;;
52786;SDS011;38661;53.152;5.846;2023-06-05T10:59:18;5.13;;;4.63;;
52786;SDS011;38661;53.152;5.846;2023-06-05T11:07:23;6.13;;;4.20;;
52786;SDS011;38661;53.152;5.846;2023-06-05T11:10:10;5.55;;;4.60;;
52786;SDS011;38661;53.152;5.846;2023-06-05T11:17:34;6.50;;;4.95;;
52786;SDS011;38661;53.152;5.846;2023-06-05T11:20:01;4.93;;;3.90;;
52786;SDS011;38661;53.152;5.846;2023-06-05T11:23:06;4.75;;;4.25;;
52786;SDS011;38661;53.152;5.846;2023-06-05T11:30:16;5.13;;;4.13;;
52786;SDS011;38661;53.152;5.846;2023-06-05T11:32:46;4.63;;;3.88;;
52786;SDS011;38661;53.152;5.846;2023-06-05T11:35:12;6.25;;;4.60;;
52786;SDS011;38661;53.152;5.846;2023-06-05T11:37:38;5.20;;;4.25;;
52786;SDS011;38661;53.152;5.846;2023-06-05T11:40:07;4.43;;;3.88;;
52786;SDS011;38661;53.152;5.846;2023-06-05T11:42:36;4.38;;;3.97;;
52786;SDS011;38661;53.152;5.846;2023-06-05T11:45:13;6.35;;;4.10;;
52786;SDS011;38661;53.152;5.846;2023-06-05T11:47:39;6.47;;;4.20;;
52786;SDS011;38661;53.152;5.846;2023-06-05T11:50:09;5.03;;;4.38;;
52786;SDS011;38661;53.152;5.846;2023-06-05T11:52:36;4.97;;;4.47;;
52786;SDS011;38661;53.152;5.846;2023-06-05T11:57:47;6.30;;;4.63;;
52786;SDS011;38661;53.152;5.846;2023-06-05T12:00:13;5.93;;;4.45;;
52786;SDS011;38661;53.152;5.846;2023-06-05T12:02:44;5.60;;;4.38;;
52786;SDS011;38661;53.152;5.846;2023-06-05T12:05:11;4.63;;;3.90;;
52786;SDS011;38661;53.152;5.846;2023-06-05T12:07:37;5.25;;;4.75;;
52786;SDS011;38661;53.152;5.846;2023-06-05T12:10:04;5.40;;;4.57;;
52786;SDS011;38661;53.152;5.846;2023-06-05T12:12:35;4.90;;;4.38;;
52786;SDS011;38661;53.152;5.846;2023-06-05T12:15:16;6.13;;;4.47;;
52786;SDS011;38661;53.152;5.846;2023-06-05T12:17:52;5.72;;;5.22;;
52786;SDS011;38661;53.152;5.846;2023-06-05T12:20:20;5.82;;;4.80;;
52786;SDS011;38661;53.152;5.846;2023-06-05T12:22:46;6.80;;;5.35;;
52786;SDS011;38661;53.152;5.846;2023-06-05T12:25:16;8.38;;;5.60;;
52786;SDS011;38661;53.152;5.846;2023-06-05T12:27:42;9.30;;;5.10;;
52786;SDS011;38661;53.152;5.846;2023-06-05T12:30:10;6.00;;;4.45;;
52786;SDS011;38661;53.152;5.846;2023-06-05T12:32:37;15.27;;;6.78;;
52786;SDS011;38661;53.152;5.846;2023-06-05T12:35:04;5.22;;;4.45;;
52786;SDS011;38661;53.152;5.846;2023-06-05T12:37:32;5.68;;;4.85;;
52786;SDS011;38661;53.152;5.846;2023-06-05T12:40:02;8.13;;;5.05;;
52786;SDS011;38661;53.152;5.846;2023-06-05T12:42:34;6.75;;;5.00;;
52786;SDS011;38661;53.152;5.846;2023-06-05T12:45:01;8.75;;;5.93;;
52786;SDS011;38661;53.152;5.846;2023-06-05T12:47:27;6.05;;;5.43;;
52786;SDS011;38661;53.152;5.846;2023-06-05T12:49:53;5.88;;;4.45;;
52786;SDS011;38661;53.152;5.846;2023-06-05T12:52:19;5.53;;;5.00;;
52786;SDS011;38661;53.152;5.846;2023-06-05T12:54:50;7.95;;;5.25;;
52786;SDS011;38661;53.152;5.846;2023-06-05T12:57:16;5.63;;;4.80;;
52786;SDS011;38661;53.152;5.846;2023-06-05T12:59:46;7.22;;;5.25;;
52786;SDS011;38661;53.152;5.846;2023-06-05T13:02:12;7.13;;;5.03;;
52786;SDS011;38661;53.152;5.846;2023-06-05T13:04:38;7.68;;;5.15;;
52786;SDS011;38661;53.152;5.846;2023-06-05T13:07:05;7.00;;;6.00;;
52786;SDS011;38661;53.152;5.846;2023-06-05T13:09:31;8.70;;;6.03;;
52786;SDS011;38661;53.152;5.846;2023-06-05T13:11:58;6.22;;;5.20;;
52786;SDS011;38661;53.152;5.846;2023-06-05T13:14:29;8.60;;;5.60;;
52786;SDS011;38661;53.152;5.846;2023-06-05T13:16:58;7.45;;;6.10;;
52786;SDS011;38661;53.152;5.846;2023-06-05T13:19:24;6.00;;;5.18;;
52786;SDS011;38661;53.152;5.846;2023-06-05T13:21:50;6.85;;;5.30;;
52786;SDS011;38661;53.152;5.846;2023-06-05T13:24:17;6.05;;;5.43;;
52786;SDS011;38661;53.152;5.846;2023-06-05T13:26:43;7.00;;;5.80;;
52786;SDS011;38661;53.152;5.846;2023-06-05T13:29:09;7.30;;;6.45;;
52786;SDS011;38661;53.152;5.846;2023-06-05T13:31:36;8.18;;;6.65;;
52786;SDS011;38661;53.152;5.846;2023-06-05T13:34:02;7.47;;;5.95;;
52786;SDS011;38661;53.152;5.846;2023-06-05T13:36:28;7.93;;;6.80;;
52786;SDS011;38661;53.152;5.846;2023-06-05T13:38:53;7.30;;;6.50;;
52786;SDS011;38661;53.152;5.846;2023-06-05T13:41:19;7.25;;;6.13;;
52786;SDS011;38661;53.152;5.846;2023-06-05T13:43:46;8.43;;;6.90;;
52786;SDS011;38661;53.152;5.846;2023-06-05T13:46:12;9.52;;;6.80;;
52786;SDS011;38661;53.152;5.846;2023-06-05T13:48:38;7.30;;;6.00;;
52786;SDS011;38661;53.152;5.846;2023-06-05T13:51:04;8.02;;;6.45;;
52786;SDS011;38661;53.152;5.846;2023-06-05T13:53:30;7.95;;;5.85;;
52786;SDS011;38661;53.152;5.846;2023-06-05T13:56:03;6.82;;;5.65;;
52786;SDS011;38661;53.152;5.846;2023-06-05T13:58:29;7.50;;;5.78;;
52786;SDS011;38661;53.152;5.846;2023-06-05T14:00:55;7.15;;;5.57;;
52786;SDS011;38661;53.152;5.846;2023-06-05T14:03:21;7.28;;;5.88;;
52786;SDS011;38661;53.152;5.846;2023-06-05T14:05:47;7.28;;;6.20;;
52786;SDS011;38661;53.152;5.846;2023-06-05T14:08:13;8.15;;;5.95;;
52786;SDS011;38661;53.152;5.846;2023-06-05T14:10:38;6.63;;;5.80;;
52786;SDS011;38661;53.152;5.846;2023-06-05T14:13:04;8.73;;;6.30;;
52786;SDS011;38661;53.152;5.846;2023-06-05T14:15:30;7.10;;;6.35;;
52786;SDS011;38661;53.152;5.846;2023-06-05T14:17:59;6.72;;;5.95;;
52786;SDS011;38661;53.152;5.846;2023-06-05T14:20:26;6.25;;;5.65;;
52786;SDS011;38661;53.152;5.846;2023-06-05T14:22:54;8.15;;;6.47;;
52786;SDS011;38661;53.152;5.846;2023-06-05T14:25:23;8.65;;;7.00;;
52786;SDS011;38661;53.152;5.846;2023-06-05T14:27:53;7.25;;;6.55;;
52786;SDS011;38661;53.152;5.846;2023-06-05T14:30:20;10.48;;;7.03;;
52786;SDS011;38661;53.152;5.846;2023-06-05T14:32:46;7.38;;;6.00;;
52786;SDS011;38661;53.152;5.846;2023-06-05T14:35:12;9.02;;;5.93;;
52786;SDS011;38661;53.152;5.846;2023-06-05T14:37:38;7.47;;;5.82;;
52786;SDS011;38661;53.152;5.846;2023-06-05T14:40:04;7.72;;;6.13;;
52786;SDS011;38661;53.152;5.846;2023-06-05T14:42:31;7.57;;;6.78;;
52786;SDS011;38661;53.152;5.846;2023-06-05T14:44:57;7.65;;;6.38;;
52786;SDS011;38661;53.152;5.846;2023-06-05T14:47:22;10.07;;;6.10;;
52786;SDS011;38661;53.152;5.846;2023-06-05T14:49:50;7.53;;;6.18;;
52786;SDS011;38661;53.152;5.846;2023-06-05T14:52:16;9.35;;;6.07;;
52786;SDS011;38661;53.152;5.846;2023-06-05T14:54:43;7.97;;;6.45;;
52786;SDS011;38661;53.152;5.846;2023-06-05T14:57:09;7.50;;;6.30;;
52786;SDS011;38661;53.152;5.846;2023-06-05T14:59:34;8.32;;;6.00;;
52786;SDS011;38661;53.152;5.846;2023-06-05T15:02:01;12.50;;;7.43;;
52786;SDS011;38661;53.152;5.846;2023-06-05T15:04:28;9.05;;;6.18;;
52786;SDS011;38661;53.152;5.846;2023-06-05T15:06:54;9.32;;;6.78;;
52786;SDS011;38661;53.152;5.846;2023-06-05T15:09:20;9.13;;;6.25;;
52786;SDS011;38661;53.152;5.846;2023-06-05T15:11:47;7.35;;;5.70;;
52786;SDS011;38661;53.152;5.846;2023-06-05T15:14:13;7.93;;;5.68;;
52786;SDS011;38661;53.152;5.846;2023-06-05T15:16:39;5.78;;;4.97;;
52786;SDS011;38661;53.152;5.846;2023-06-05T15:19:05;6.07;;;5.50;;
52786;SDS011;38661;53.152;5.846;2023-06-05T15:21:31;8.40;;;6.22;;
52786;SDS011;38661;53.152;5.846;2023-06-05T15:23:56;9.43;;;5.30;;
52786;SDS011;38661;53.152;5.846;2023-06-05T15:26:22;7.15;;;5.47;;
52786;SDS011;38661;53.152;5.846;2023-06-05T15:28:48;7.65;;;5.68;;
52786;SDS011;38661;53.152;5.846;2023-06-05T15:31:14;8.20;;;5.72;;